Boise, ID (83716)

7:44 PM MDT on June 01, 2015 (GMT -0600)
Legend Ridge | | Change Station
CLOSE
Current Station
Personal Weather Station
Location: Idaho, ID
Elevation: 3051 ft
Nearby Weather Stations
Active Advisory: Special Statement

Elev 3051 ft 43.54 °N, 116.15 °W | Updated 9 minutes ago

Mostly Cloudy
Mostly Cloudy
77.7 °F
Feels Like 78 °F
N
1.0
Wind Variable Wind from SE
Gusts 3.0 mph

Today
High -- | Low -- °F
--% Chance of Precip.
Yesterday
High -- | Low -- °F
Precip. -- in
6:06 AM 9:18 PM
Full, 100% visible
Pressure 29.76 in
Visibility 10.0 miles
Clouds Few 8000 ft
Overcast 10000 ft
Heat Index 78 °F
Dew Point 50 °F
Humidity 38%
Rainfall 0.05 in
Snow Depth Not available.
UV 0 out of 12
Pollen 6.80 out of 12
Air Quality Not available.
Flu Activity No Activity
SPECI KBOI 020133Z 00000KT 10SM TS FEW080 OVC100 27/07 A2976 RMK AO2 LTG DSNT N TSB27

More Conditions Fewer Conditions

Pressure 29.76 in
Visibility 10.0 miles
Clouds Few 8000 ft
Overcast 10000 ft
Heat Index 78 °F
Dew Point 50 °F
Humidity 38%
Rainfall 0.05 in
Snow Depth Not available.
UV 0 out of 12
Pollen 6.80 out of 12
Air Quality Not available.
Flu Activity No Activity
SPECI KBOI 020133Z 00000KT 10SM TS FEW080 OVC100 27/07 A2976 RMK AO2 LTG DSNT N TSB27

More Conditions Fewer Conditions

10-Day Weather Forecast

Almanac

Astronomy

Jun. 01, 2015 Rise Set
Actual Time
Civil Twilight
Nautical Twilight
Astronomical Twilight
Moon
Length of Visible Light
Length of Day
Tomorrow will be .
, % of the Moon is Illuminated

Today's Extremes

State Highs State Lows

Community

WunderPhotos

Upload Photos

1,825,851 photos uploaded!

WunderBlogs® & News

Nearby

Air Quality

  Air Quality AQ Index Pollutant
Not available.

Snow Depth

Station Depth Elevation

Earthquake Activity

City Distance Mag. Time & Date
Minimum magnitude displayed is 2.5.

Coastal Water Temperatures

Place Temperature

Stations

Nearby Weather Stations

Station Location Temp. Windchill Dew Point Humidity Wind Precip. Elev Updated Type
                   
Special Statement
Statement as of 7:40 PM MDT on June 01, 2015

... Special Weather Statement...

At 740 PM MDT... Doppler radar was tracking a strong thunderstorm over
northeastern Boise... moving northeast at 15 mph.

Half inch hail and winds in excess of 30 mph will be possible with
this storm.

Precautionary/preparedness actions...

Torrential rainfall is also occurring with this storm... and may lead
to minor street flooding. Do not drive your vehicle through flooded
roadways.

When safe to do so... please relay storm reports to the National
Weather Service in Boise Idaho via local law enforcement... or NWS
Boise facebook and twitter accounts.


Lat... Lon 4356 11616 4365 11630 4376 11614 4370 11600
time... Mot... loc 0140z 224deg 15kt 4365 11619


Bw